TimePDT,TemperatureF,Dew PointF,Humidity,Sea Level PressureIn,VisibilityMPH,Wind Direction,Wind SpeedMPH,Gust SpeedMPH,PrecipitationIn,Events,Conditions,WindDirDegrees,DateUTC
12:00 AM,66.2,37.4,35,29.91,15.0,WNW,11.5,24.2,N/A,,Partly Cloudy,300,2012-10-07 07:00:00
1:00 AM,64.4,37.4,37,29.94,15.0,WNW,17.3,26.5,N/A,,Scattered Clouds,290,2012-10-07 08:00:00
2:00 AM,62.6,37.4,39,29.95,15.0,West,9.2,-,N/A,,Partly Cloudy,280,2012-10-07 09:00:00
3:00 AM,57.2,37.4,48,29.97,15.0,WSW,6.9,-,N/A,,Partly Cloudy,250,2012-10-07 10:00:00
4:00 AM,59.0,39.2,48,29.99,15.0,WNW,6.9,-,N/A,,Partly Cloudy,290,2012-10-07 11:00:00
5:00 AM,54,36,40,30.05,15,NNW,8.1,,,,Clear,340,2012-10-07 12:00:00
5:00 AM,53.6,37.4,54,30.05,15.0,NNW,8.1,-,N/A,,Partly Cloudy,340,2012-10-07 12:00:00
6:00 AM,51.8,39.2,62,30.08,15.0,North,11.5,-,N/A,,Scattered Clouds,350,2012-10-07 13:00:00
7:00 AM,50.0,39.2,66,30.10,20.0,NNW,8.1,-,N/A,,Mostly Cloudy,330,2012-10-07 14:00:00
8:00 AM,48.2,39.2,71,30.15,20.0,WNW,3.5,-,N/A,,Mostly Cloudy,300,2012-10-07 15:00:00
9:00 AM,48.2,39.2,71,30.18,20.0,NW,5.8,-,N/A,,Mostly Cloudy,320,2012-10-07 16:00:00
10:00 AM,50.0,39.2,66,30.19,20.0,NNW,8.1,-,N/A,,Mostly Cloudy,330,2012-10-07 17:00:00
11:00 AM,50,39,55,30.18,19,NNW,4.6,,,,Scattered Clouds,330,2012-10-07 18:00:00
11:00 AM,50.0,39.2,66,30.18,20.0,NNW,5.8,-,N/A,,Mostly Cloudy,330,2012-10-07 18:00:00
12:00 PM,51.8,39.2,62,30.17,20.0,North,5.8,-,N/A,,Mostly Cloudy,350,2012-10-07 19:00:00
1:00 PM,51.8,35.6,54,30.18,20.0,NNW,8.1,-,N/A,,Mostly Cloudy,330,2012-10-07 20:00:00
2:00 PM,51.8,32.0,47,30.16,20.0,North,5.8,-,N/A,,Mostly Cloudy,10,2012-10-07 21:00:00
3:00 PM,51.8,32.0,47,30.17,20.0,NNE,5.8,-,N/A,,Mostly Cloudy,30,2012-10-07 22:00:00
4:00 PM,53.6,30.2,41,30.16,20.0,NE,8.1,-,N/A,,Mostly Cloudy,40,2012-10-07 23:00:00
5:00 PM,52,31,32,30.16,19,North,3.5,,,,Scattered Clouds,350,2012-10-08 00:00:00
5:00 PM,51.8,30.2,44,30.16,20.0,NNW,4.6,-,N/A,,Mostly Cloudy,340,2012-10-08 00:00:00
6:00 PM,50.0,30.2,47,30.16,20.0,North,4.6,-,N/A,,Mostly Cloudy,350,2012-10-08 01:00:00
7:00 PM,46.4,32.0,57,30.16,20.0,Calm,Calm,-,N/A,,Mostly Cloudy,0,2012-10-08 02:00:00
8:00 PM,44.6,30.2,57,30.18,15.0,NNE,4.6,-,N/A,,Mostly Cloudy,20,2012-10-08 03:00:00
9:00 PM,44.6,30.2,57,30.18,15.0,NNE,4.6,-,N/A,,Mostly Cloudy,20,2012-10-08 04:00:00
10:00 PM,39.2,30.2,70,30.19,15.0,NW,3.5,-,N/A,,Mostly Cloudy,320,2012-10-08 05:00:00
11:00 PM,37,29,62,30.20,15,NW,4.6,,,,Scattered Clouds,320,2012-10-08 06:00:00
11:00 PM,37.4,28.4,70,30.20,15.0,NW,4.6,-,N/A,,Mostly Cloudy,320,2012-10-08 06:00:00